Newry, Minnesota
Current Conditions -  °F | °C
As of 2:53 PM on Saturday 25 Oct 2014 (Local Time) from KTOB Reporting Station
Clear Clear  
Wind Chill: 63°   Ceiling: Unl
Heat Index: 63°   Visibility: 10mi
Dew Point: 28°   Wind: 17mph
Humidity: 27%   Direction: 320°NW
Pressure: 30.05"   Gusts: 24mph
Location:  43.9356°N, 93.0454°W
Report Text: KTOB 251953Z AUTO 32015G21KT 10SM CLR 17/M02 A3005 RMK AO2
Loading
Personal Weather Stations






























Interactive Weather Map
Tropical Storm Tracking
New forecast layout! Learn more

10-Day Weather Forecast

Advertisements
Track Severe Weather on mobile